Larkspur, CO

3:02 AM MDT on September 21, 2014 (GMT -0600)
Centennial | Change Station
CLOSE
Current Station
Airport
Location: Denver Centennial,
Elevation: 5883 ft
Nearby Weather Stations

Elev 5883 ft 39.56 °N, 104.85 °W | Updated 9 minutes ago

Overcast
Overcast
59 °F
Feels Like 59 °F
N
8
Wind Variable Wind from ESE

Today
High -- | Low -- °F
--% Chance of Precip.
Yesterday
High -- | Low -- °F
Precip. -- in
6:46 AM 6:58 PM
Waning Crescent, 8% visible
Pressure 30.15 in
Visibility 10.0 miles
Clouds Mostly Cloudy 7000 ft
Mostly Cloudy 11000 ft
Overcast 15000 ft
Dew Point 55 °F
Humidity 87%
Rainfall 0.00 in
Snow Depth Not available.
UV 0 out of 12
Pollen 5.60 out of 12
PM2.5 Good
Flu Activity Not available.
METAR KAPA 210853Z 12007KT 10SM BKN070 BKN110 OVC150 15/13 A3034 RMK AO2 SLP210 T01500128 58004

More Conditions Fewer Conditions

Pressure 30.15 in
Visibility 10.0 miles
Clouds Mostly Cloudy 7000 ft
Mostly Cloudy 11000 ft
Overcast 15000 ft
Dew Point 55 °F
Humidity 87%
Rainfall 0.00 in
Snow Depth Not available.
UV 0 out of 12
Pollen 5.60 out of 12
PM2.5 Good
Flu Activity Not available.
METAR KAPA 210853Z 12007KT 10SM BKN070 BKN110 OVC150 15/13 A3034 RMK AO2 SLP210 T01500128 58004

More Conditions Fewer Conditions

Nowcast | as of 12:42 am MDT on September 21, 2014

Scattered rain showers will spread from Park County into southern parts of Jefferson and Douglas counties by 3 am. The rain will generally be light.

×

10-Day Weather Forecast

Almanac

Astronomy

Sep. 21, 2014 Rise Set
Actual Time 6:46 AM MDT 6:58 PM MDT
Civil Twilight 6:19 AM MDT 7:24 PM MDT
Nautical Twilight 5:48 AM MDT 7:56 PM MDT
Astronomical Twilight 5:16 AM MDT 8:27 PM MDT
Moon 4:23 AM MDT 5:35 PM MDT
Length of Visible Light 13h 05m
Length of Day
12h 11m
Tomorrow will be 2m 32s shorter.
Waning Crescent, 8% of the Moon is Illuminated
Today
Waning Crescent
Sep 24
New
Oct 1
First Quarter
Oct 8
Full
Oct 15
Last Quarter

Today's Extremes

State Highs State Lows

Community

WunderPhotos

Upload Photos

1,755,100 photos uploaded!

Nearby

Air Quality

  Air Quality AQ Index Pollutant
Yesterday Good
OZONE
Yesterday Good
PM2.5
Current Good
PM2.5
Sunday Good
PM2.5
Sunday Good
OZONE
Monday Good
PM2.5
Monday Good
OZONE

Snow Depth

Station Depth Elevation
Summit Ranch 0 in 9400 ft
Lily Pond 0 in 11000 ft
Red Mountain Pass 0 in 11150 ft
Schofield Pass 0 in 10700 ft
Ivanhoe 0 in 10400 ft

Earthquake Activity

City Distance Mag. Time & Date
No recent earthquake activity has been reported nearby.
Minimum magnitude displayed is 2.5.

Coastal Water Temperatures

Place Temperature
No Stations Reporting

Nearby Weather Stations